sensor_id;sensor_type;location;lat;lon;timestamp;pressure;altitude;pressure_sealevel;temperature;humidity
78444;BME280;67739;52.986;8.894;2023-05-23T00:01:11;101465.53;;;14.29;86.30
78444;BME280;67739;52.986;8.894;2023-05-23T00:03:39;101470.06;;;14.29;86.46
78444;BME280;67739;52.986;8.894;2023-05-23T00:06:05;101472.00;;;14.27;86.58
78444;BME280;67739;52.986;8.894;2023-05-23T00:08:31;101457.78;;;14.23;86.50
78444;BME280;67739;52.986;8.894;2023-05-23T00:10:56;101447.16;;;14.20;86.50
78444;BME280;67739;52.986;8.894;2023-05-23T00:13:21;101455.09;;;14.23;86.49
78444;BME280;67739;52.986;8.894;2023-05-23T00:15:47;101449.69;;;14.23;86.20
78444;BME280;67739;52.986;8.894;2023-05-23T00:18:12;101449.69;;;14.23;86.52
78444;BME280;67739;52.986;8.894;2023-05-23T00:20:40;101450.72;;;14.21;86.55
78444;BME280;67739;52.986;8.894;2023-05-23T00:23:07;101445.56;;;14.16;86.60
78444;BME280;67739;52.986;8.894;2023-05-23T00:25:34;101449.19;;;14.15;86.72
78444;BME280;67739;52.986;8.894;2023-05-23T00:28:00;101445.75;;;14.13;86.96
78444;BME280;67739;52.986;8.894;2023-05-23T00:30:27;101460.09;;;14.13;86.97
78444;BME280;67739;52.986;8.894;2023-05-23T00:32:54;101441.44;;;14.09;86.88
78444;BME280;67739;52.986;8.894;2023-05-23T00:35:20;101464.72;;;14.11;86.43
78444;BME280;67739;52.986;8.894;2023-05-23T00:37:46;101458.66;;;14.06;86.87
78444;BME280;67739;52.986;8.894;2023-05-23T00:40:14;101450.88;;;14.00;87.15
78444;BME280;67739;52.986;8.894;2023-05-23T00:42:40;101468.81;;;14.01;86.74
78444;BME280;67739;52.986;8.894;2023-05-23T00:45:05;101456.59;;;13.94;86.53
78444;BME280;67739;52.986;8.894;2023-05-23T00:47:31;101462.88;;;13.95;86.84
78444;BME280;67739;52.986;8.894;2023-05-23T00:49:56;101463.81;;;13.94;86.67
78444;BME280;67739;52.986;8.894;2023-05-23T00:52:22;101462.06;;;13.93;86.86
78444;BME280;67739;52.986;8.894;2023-05-23T00:54:48;101456.03;;;13.88;86.41
78444;BME280;67739;52.986;8.894;2023-05-23T00:57:13;101460.31;;;13.92;86.35
78444;BME280;67739;52.986;8.894;2023-05-23T00:59:39;101457.84;;;13.87;87.02
78444;BME280;67739;52.986;8.894;2023-05-23T01:02:04;101458.91;;;13.85;86.78
78444;BME280;67739;52.986;8.894;2023-05-23T01:04:30;101450.09;;;13.81;87.19
78444;BME280;67739;52.986;8.894;2023-05-23T01:06:58;101461.50;;;13.86;86.84
78444;BME280;67739;52.986;8.894;2023-05-23T01:09:26;101444.63;;;13.83;86.93
78444;BME280;67739;52.986;8.894;2023-05-23T01:14:46;101449.16;;;13.82;86.96
78444;BME280;67739;52.986;8.894;2023-05-23T01:17:23;101442.88;;;13.82;87.04
78444;BME280;67739;52.986;8.894;2023-05-23T01:20:06;101436.63;;;13.81;86.96
78444;BME280;67739;52.986;8.894;2023-05-23T01:27:59;101433.84;;;13.83;86.87
78444;BME280;67739;52.986;8.894;2023-05-23T01:30:26;101433.03;;;13.80;86.89
78444;BME280;67739;52.986;8.894;2023-05-23T01:32:55;101436.75;;;13.78;87.08
78444;BME280;67739;52.986;8.894;2023-05-23T01:35:24;101438.66;;;13.76;86.54
78444;BME280;67739;52.986;8.894;2023-05-23T01:37:52;101437.78;;;13.75;86.85
78444;BME280;67739;52.986;8.894;2023-05-23T01:40:20;101430.56;;;13.76;86.99
78444;BME280;67739;52.986;8.894;2023-05-23T01:42:46;101436.84;;;13.76;86.59
78444;BME280;67739;52.986;8.894;2023-05-23T01:45:12;101431.53;;;13.75;86.81
78444;BME280;67739;52.986;8.894;2023-05-23T01:47:39;101437.72;;;13.77;86.92
78444;BME280;67739;52.986;8.894;2023-05-23T01:50:06;101431.53;;;13.75;86.92
78444;BME280;67739;52.986;8.894;2023-05-23T01:52:33;101426.06;;;13.76;87.02
78444;BME280;67739;52.986;8.894;2023-05-23T01:54:59;101428.81;;;13.75;87.44
78444;BME280;67739;52.986;8.894;2023-05-23T01:57:27;101421.69;;;13.74;86.98
78444;BME280;67739;52.986;8.894;2023-05-23T01:59:53;101433.19;;;13.77;87.30
78444;BME280;67739;52.986;8.894;2023-05-23T02:02:18;101427.81;;;13.77;87.25
78444;BME280;67739;52.986;8.894;2023-05-23T02:04:44;101428.81;;;13.75;87.58
78444;BME280;67739;52.986;8.894;2023-05-23T02:07:09;101437.56;;;13.80;87.46
78444;BME280;67739;52.986;8.894;2023-05-23T02:09:35;101432.09;;;13.82;87.63
78444;BME280;67739;52.986;8.894;2023-05-23T02:12:00;101442.81;;;13.83;86.96
78444;BME280;67739;52.986;8.894;2023-05-23T02:14:25;101441.84;;;13.84;87.63
78444;BME280;67739;52.986;8.894;2023-05-23T02:16:52;101432.97;;;13.82;87.74
78444;BME280;67739;52.986;8.894;2023-05-23T02:19:18;101439.22;;;13.83;87.69
78444;BME280;67739;52.986;8.894;2023-05-23T02:21:43;101435.66;;;13.82;87.86
78444;BME280;67739;52.986;8.894;2023-05-23T02:24:08;101436.47;;;13.84;87.78
78444;BME280;67739;52.986;8.894;2023-05-23T02:26:34;101433.78;;;13.84;87.54
78444;BME280;67739;52.986;8.894;2023-05-23T02:28:59;101442.72;;;13.85;88.11
78444;BME280;67739;52.986;8.894;2023-05-23T02:31:25;101442.81;;;13.83;87.94
78444;BME280;67739;52.986;8.894;2023-05-23T02:33:50;101446.44;;;13.82;87.91
78444;BME280;67739;52.986;8.894;2023-05-23T02:36:16;101436.69;;;13.79;87.82
78444;BME280;67739;52.986;8.894;2023-05-23T02:38:41;101445.66;;;13.80;87.86
78444;BME280;67739;52.986;8.894;2023-05-23T02:41:07;101436.69;;;13.79;87.95
78444;BME280;67739;52.986;8.894;2023-05-23T02:43:32;101435.81;;;13.79;88.17
78444;BME280;67739;52.986;8.894;2023-05-23T02:45:57;101431.38;;;13.78;87.96
78444;BME280;67739;52.986;8.894;2023-05-23T02:48:23;101433.19;;;13.77;88.36
78444;BME280;67739;52.986;8.894;2023-05-23T02:50:48;101444.94;;;13.76;87.96
78444;BME280;67739;52.986;8.894;2023-05-23T02:53:13;101422.47;;;13.76;87.79
78444;BME280;67739;52.986;8.894;2023-05-23T02:55:39;101425.25;;;13.74;88.23
78444;BME280;67739;52.986;8.894;2023-05-23T02:58:04;101429.78;;;13.74;87.69
78444;BME280;67739;52.986;8.894;2023-05-23T03:00:30;101427.16;;;13.72;88.18
78444;BME280;67739;52.986;8.894;2023-05-23T03:02:56;101426.38;;;13.70;87.90
78444;BME280;67739;52.986;8.894;2023-05-23T03:05:22;101420.88;;;13.72;88.17
78444;BME280;67739;52.986;8.894;2023-05-23T03:07:47;101406.72;;;13.68;88.57
78444;BME280;67739;52.986;8.894;2023-05-23T03:10:12;101419.06;;;13.72;88.05
78444;BME280;67739;52.986;8.894;2023-05-23T03:12:38;101408.53;;;13.68;88.47
78444;BME280;67739;52.986;8.894;2023-05-23T03:15:03;101421.00;;;13.70;88.48
78444;BME280;67739;52.986;8.894;2023-05-23T03:17:29;101414.81;;;13.68;88.74
78444;BME280;67739;52.986;8.894;2023-05-23T03:19:54;101422.88;;;13.68;88.33
78444;BME280;67739;52.986;8.894;2023-05-23T03:22:20;101415.91;;;13.64;88.13
78444;BME280;67739;52.986;8.894;2023-05-23T03:24:45;101422.88;;;13.68;88.38
78444;BME280;67739;52.986;8.894;2023-05-23T03:27:11;101414.00;;;13.66;88.31
78444;BME280;67739;52.986;8.894;2023-05-23T03:29:36;101421.06;;;13.69;88.51
78444;BME280;67739;52.986;8.894;2023-05-23T03:32:01;101416.63;;;13.68;88.87
78444;BME280;67739;52.986;8.894;2023-05-23T03:34:27;101416.69;;;13.66;89.21
78444;BME280;67739;52.986;8.894;2023-05-23T03:36:52;101418.38;;;13.69;88.99
78444;BME280;67739;52.986;8.894;2023-05-23T03:39:17;101426.47;;;13.69;89.03
78444;BME280;67739;52.986;8.894;2023-05-23T03:41:43;101426.47;;;13.69;89.14
78444;BME280;67739;52.986;8.894;2023-05-23T03:44:08;101422.97;;;13.67;88.97
78444;BME280;67739;52.986;8.894;2023-05-23T03:46:34;101428.34;;;13.67;89.22
78444;BME280;67739;52.986;8.894;2023-05-23T03:48:59;101422.25;;;13.63;89.02
78444;BME280;67739;52.986;8.894;2023-05-23T03:51:24;101428.34;;;13.67;89.13
78444;BME280;67739;52.986;8.894;2023-05-23T03:53:50;101436.53;;;13.65;89.08
78444;BME280;67739;52.986;8.894;2023-05-23T03:56:15;101433.91;;;13.64;89.45
78444;BME280;67739;52.986;8.894;2023-05-23T03:58:40;101435.66;;;13.65;89.07
78444;BME280;67739;52.986;8.894;2023-05-23T04:01:06;101434.78;;;13.64;89.50
78444;BME280;67739;52.986;8.894;2023-05-23T04:03:31;101438.41;;;13.63;89.47
78444;BME280;67739;52.986;8.894;2023-05-23T04:05:58;101442.06;;;13.62;89.84
78444;BME280;67739;52.986;8.894;2023-05-23T04:08:25;101443.09;;;13.60;89.90
78444;BME280;67739;52.986;8.894;2023-05-23T04:10:50;101444.84;;;13.61;89.59
78444;BME280;67739;52.986;8.894;2023-05-23T04:13:16;101444.97;;;13.58;89.92
78444;BME280;67739;52.986;8.894;2023-05-23T04:15:41;101445.31;;;13.52;89.78
78444;BME280;67739;52.986;8.894;2023-05-23T04:18:07;101448.16;;;13.49;89.89
78444;BME280;67739;52.986;8.894;2023-05-23T04:20:33;101449.16;;;13.46;90.33
78444;BME280;67739;52.986;8.894;2023-05-23T04:22:59;101462.88;;;13.41;90.09
78444;BME280;67739;52.986;8.894;2023-05-23T04:25:24;101458.53;;;13.39;90.88
78444;BME280;67739;52.986;8.894;2023-05-23T04:27:50;101452.31;;;13.37;90.76
78444;BME280;67739;52.986;8.894;2023-05-23T04:30:16;101466.75;;;13.36;90.42
78444;BME280;67739;52.986;8.894;2023-05-23T04:32:42;101462.38;;;13.33;90.67
78444;BME280;67739;52.986;8.894;2023-05-23T04:35:08;101462.38;;;13.33;91.03
78444;BME280;67739;52.986;8.894;2023-05-23T04:37:33;101466.97;;;13.31;90.91
78444;BME280;67739;52.986;8.894;2023-05-23T04:39:59;101464.25;;;13.31;90.81
78444;BME280;67739;52.986;8.894;2023-05-23T04:42:25;101464.50;;;13.27;91.10
78444;BME280;67739;52.986;8.894;2023-05-23T04:44:53;101468.16;;;13.26;91.06
78444;BME280;67739;52.986;8.894;2023-05-23T04:47:29;101462.84;;;13.24;90.89
78444;BME280;67739;52.986;8.894;2023-05-23T04:49:58;101464.59;;;13.25;90.82
78444;BME280;67739;52.986;8.894;2023-05-23T04:52:24;101476.38;;;13.23;91.01
78444;BME280;67739;52.986;8.894;2023-05-23T04:54:59;101463.78;;;13.23;91.04
78444;BME280;67739;52.986;8.894;2023-05-23T04:57:25;101471.94;;;13.22;91.09
78444;BME280;67739;52.986;8.894;2023-05-23T04:59:50;101467.63;;;13.18;91.24
78444;BME280;67739;52.986;8.894;2023-05-23T05:02:16;101477.53;;;13.17;91.35
78444;BME280;67739;52.986;8.894;2023-05-23T05:04:41;101482.84;;;13.19;91.21
78444;BME280;67739;52.986;8.894;2023-05-23T05:07:07;101482.13;;;13.15;91.05
78444;BME280;67739;52.986;8.894;2023-05-23T05:09:32;101483.81;;;13.18;91.12
78444;BME280;67739;52.986;8.894;2023-05-23T05:12:01;101484.81;;;13.15;91.32
78444;BME280;67739;52.986;8.894;2023-05-23T05:14:26;101484.22;;;13.08;91.14
78444;BME280;67739;52.986;8.894;2023-05-23T05:16:52;101489.88;;;13.02;91.20
78444;BME280;67739;52.986;8.894;2023-05-23T05:19:19;101500.66;;;13.02;91.44
78444;BME280;67739;52.986;8.894;2023-05-23T05:21:45;101513.25;;;13.02;91.58
78444;BME280;67739;52.986;8.894;2023-05-23T05:24:11;101497.16;;;13.00;91.56
78444;BME280;67739;52.986;8.894;2023-05-23T05:26:37;101502.72;;;12.97;91.66
78444;BME280;67739;52.986;8.894;2023-05-23T05:29:02;101505.47;;;12.96;91.57
78444;BME280;67739;52.986;8.894;2023-05-23T05:31:28;101518.19;;;12.92;91.57
78444;BME280;67739;52.986;8.894;2023-05-23T05:33:53;101520.97;;;12.91;92.05
78444;BME280;67739;52.986;8.894;2023-05-23T05:36:19;101522.78;;;12.90;91.56
78444;BME280;67739;52.986;8.894;2023-05-23T05:38:44;101526.41;;;12.89;91.46
78444;BME280;67739;52.986;8.894;2023-05-23T05:41:10;101531.81;;;12.89;91.62
78444;BME280;67739;52.986;8.894;2023-05-23T05:43:35;101528.28;;;12.87;91.27
78444;BME280;67739;52.986;8.894;2023-05-23T05:46:00;101542.13;;;12.80;91.58
78444;BME280;67739;52.986;8.894;2023-05-23T05:48:26;101550.47;;;12.73;91.38
78444;BME280;67739;52.986;8.894;2023-05-23T05:50:51;101543.81;;;12.62;90.85
78444;BME280;67739;52.986;8.894;2023-05-23T05:53:16;101549.41;;;12.57;90.98
78444;BME280;67739;52.986;8.894;2023-05-23T05:55:42;101552.25;;;12.54;91.38
78444;BME280;67739;52.986;8.894;2023-05-23T05:58:07;101555.06;;;12.51;91.77
78444;BME280;67739;52.986;8.894;2023-05-23T06:00:32;101567.53;;;12.54;91.40
78444;BME280;67739;52.986;8.894;2023-05-23T06:03:05;101557.75;;;12.51;91.65
78444;BME280;67739;52.986;8.894;2023-05-23T06:05:31;101568.53;;;12.51;91.54
78444;BME280;67739;52.986;8.894;2023-05-23T06:07:56;101560.53;;;12.50;91.81
78444;BME280;67739;52.986;8.894;2023-05-23T06:10:22;101575.91;;;12.46;91.21
78444;BME280;67739;52.986;8.894;2023-05-23T06:12:48;101574.16;;;12.45;91.24
78444;BME280;67739;52.986;8.894;2023-05-23T06:15:14;101582.25;;;12.45;91.10
78444;BME280;67739;52.986;8.894;2023-05-23T06:17:40;101577.84;;;12.43;91.28
78444;BME280;67739;52.986;8.894;2023-05-23T06:20:06;101574.28;;;12.42;90.91
78444;BME280;67739;52.986;8.894;2023-05-23T06:22:32;101596.84;;;12.39;91.05
78444;BME280;67739;52.986;8.894;2023-05-23T06:24:58;101583.72;;;12.32;90.95
78444;BME280;67739;52.986;8.894;2023-05-23T06:27:23;101598.09;;;12.31;90.98
78444;BME280;67739;52.986;8.894;2023-05-23T06:29:48;101599.09;;;12.28;90.81
78444;BME280;67739;52.986;8.894;2023-05-23T06:32:14;101605.56;;;12.24;90.55
78444;BME280;67739;52.986;8.894;2023-05-23T06:34:40;101607.44;;;12.22;91.08
78444;BME280;67739;52.986;8.894;2023-05-23T06:37:05;101607.44;;;12.22;91.09
78444;BME280;67739;52.986;8.894;2023-05-23T06:39:30;101603.00;;;12.21;90.88
78444;BME280;67739;52.986;8.894;2023-05-23T06:41:56;101613.75;;;12.21;90.84
78444;BME280;67739;52.986;8.894;2023-05-23T06:44:21;101616.47;;;12.21;91.19
78444;BME280;67739;52.986;8.894;2023-05-23T06:46:47;101612.94;;;12.19;90.76
78444;BME280;67739;52.986;8.894;2023-05-23T06:49:13;101620.25;;;12.16;90.66
78444;BME280;67739;52.986;8.894;2023-05-23T06:51:39;101624.88;;;12.12;90.48
78444;BME280;67739;52.986;8.894;2023-05-23T06:54:04;101618.66;;;12.12;90.90
78444;BME280;67739;52.986;8.894;2023-05-23T06:56:30;101633.16;;;12.08;90.83
78444;BME280;67739;52.986;8.894;2023-05-23T06:58:55;101643.00;;;12.09;91.16
78444;BME280;67739;52.986;8.894;2023-05-23T07:01:20;101647.72;;;12.02;90.92
78444;BME280;67739;52.986;8.894;2023-05-23T07:03:46;101641.53;;;12.00;90.66
78444;BME280;67739;52.986;8.894;2023-05-23T07:06:11;101649.66;;;11.98;90.78
78444;BME280;67739;52.986;8.894;2023-05-23T07:08:37;101654.09;;;11.99;90.83
78444;BME280;67739;52.986;8.894;2023-05-23T07:11:03;101661.34;;;11.97;90.96
78444;BME280;67739;52.986;8.894;2023-05-23T07:13:29;101643.41;;;11.98;91.12
78444;BME280;67739;52.986;8.894;2023-05-23T07:15:55;101651.63;;;11.95;90.71
78444;BME280;67739;52.986;8.894;2023-05-23T07:18:20;101670.63;;;11.90;89.94
78444;BME280;67739;52.986;8.894;2023-05-23T07:20:46;101659.91;;;11.89;90.89
78444;BME280;67739;52.986;8.894;2023-05-23T07:23:11;101678.69;;;11.90;90.81
78444;BME280;67739;52.986;8.894;2023-05-23T07:25:36;101676.06;;;11.89;90.47
78444;BME280;67739;52.986;8.894;2023-05-23T07:28:04;101673.47;;;11.86;90.08
78444;BME280;67739;52.986;8.894;2023-05-23T07:30:29;101679.84;;;11.83;90.24
78444;BME280;67739;52.986;8.894;2023-05-23T07:32:55;101703.31;;;11.80;90.07
78444;BME280;67739;52.986;8.894;2023-05-23T07:35:20;101699.00;;;11.74;89.93
78444;BME280;67739;52.986;8.894;2023-05-23T07:37:51;101699.25;;;11.68;89.67
78444;BME280;67739;52.986;8.894;2023-05-23T07:40:17;101700.19;;;11.67;90.09
78444;BME280;67739;52.986;8.894;2023-05-23T07:42:43;101697.59;;;11.64;90.06
78444;BME280;67739;52.986;8.894;2023-05-23T07:45:08;101712.97;;;11.60;89.60
78444;BME280;67739;52.986;8.894;2023-05-23T07:47:34;101710.38;;;11.57;89.71
78444;BME280;67739;52.986;8.894;2023-05-23T07:49:59;101715.06;;;11.52;89.40
78444;BME280;67739;52.986;8.894;2023-05-23T07:52:28;101721.25;;;11.54;89.48
78444;BME280;67739;52.986;8.894;2023-05-23T07:54:53;101723.00;;;11.55;90.06
78444;BME280;67739;52.986;8.894;2023-05-23T07:57:18;101741.06;;;11.52;89.31
78444;BME280;67739;52.986;8.894;2023-05-23T07:59:44;101735.84;;;11.47;89.47
78444;BME280;67739;52.986;8.894;2023-05-23T08:02:09;101739.38;;;11.49;90.12
78444;BME280;67739;52.986;8.894;2023-05-23T08:04:34;101741.03;;;11.53;90.10
78444;BME280;67739;52.986;8.894;2023-05-23T08:07:00;101747.31;;;11.52;89.95
78444;BME280;67739;52.986;8.894;2023-05-23T08:09:25;101753.75;;;11.48;89.45
78444;BME280;67739;52.986;8.894;2023-05-23T08:11:51;101755.94;;;11.37;89.36
78444;BME280;67739;52.986;8.894;2023-05-23T08:14:16;101753.34;;;11.34;90.04
78444;BME280;67739;52.986;8.894;2023-05-23T08:16:42;101752.47;;;11.33;90.08
78444;BME280;67739;52.986;8.894;2023-05-23T08:19:07;101775.09;;;11.26;89.04
78444;BME280;67739;52.986;8.894;2023-05-23T08:21:34;101775.09;;;11.26;89.10
78444;BME280;67739;52.986;8.894;2023-05-23T08:24:00;101771.50;;;11.27;89.90
78444;BME280;67739;52.986;8.894;2023-05-23T08:26:26;101778.66;;;11.27;89.86
78444;BME280;67739;52.986;8.894;2023-05-23T08:28:54;101785.69;;;11.31;89.91
78444;BME280;67739;52.986;8.894;2023-05-23T08:31:20;101787.41;;;11.33;89.61
78444;BME280;67739;52.986;8.894;2023-05-23T08:33:45;101786.72;;;11.27;89.38
78444;BME280;67739;52.986;8.894;2023-05-23T08:36:11;101788.72;;;11.22;88.68
78444;BME280;67739;52.986;8.894;2023-05-23T08:38:36;101793.22;;;11.21;89.03
78444;BME280;67739;52.986;8.894;2023-05-23T08:41:02;101795.91;;;11.21;89.66
78444;BME280;67739;52.986;8.894;2023-05-23T08:43:29;101814.38;;;11.30;89.75
78444;BME280;67739;52.986;8.894;2023-05-23T08:45:55;101808.16;;;11.28;89.61
78444;BME280;67739;52.986;8.894;2023-05-23T08:48:21;101818.91;;;11.28;89.27
78444;BME280;67739;52.986;8.894;2023-05-23T08:50:49;101826.31;;;11.22;88.80
78444;BME280;67739;52.986;8.894;2023-05-23T08:53:15;101823.06;;;11.12;88.84
78444;BME280;67739;52.986;8.894;2023-05-23T08:55:46;101826.94;;;11.04;88.76
78444;BME280;67739;52.986;8.894;2023-05-23T08:58:13;101836.75;;;11.05;89.01
78444;BME280;67739;52.986;8.894;2023-05-23T09:00:40;101842.13;;;11.05;88.60
78444;BME280;67739;52.986;8.894;2023-05-23T09:03:07;101842.94;;;11.07;88.33
78444;BME280;67739;52.986;8.894;2023-05-23T09:05:33;101849.16;;;11.09;88.44
78444;BME280;67739;52.986;8.894;2023-05-23T09:07:58;101858.97;;;11.10;88.11
78444;BME280;67739;52.986;8.894;2023-05-23T09:10:24;101858.19;;;11.06;87.96
78444;BME280;67739;52.986;8.894;2023-05-23T09:12:49;101848.31;;;11.07;88.33
78444;BME280;67739;52.986;8.894;2023-05-23T09:15:15;101865.41;;;11.04;87.27
78444;BME280;67739;52.986;8.894;2023-05-23T09:17:41;101858.38;;;11.00;86.98
78444;BME280;67739;52.986;8.894;2023-05-23T09:20:11;101875.41;;;10.99;87.15
78444;BME280;67739;52.986;8.894;2023-05-23T09:22:38;101883.31;;;11.04;87.30
78444;BME280;67739;52.986;8.894;2023-05-23T09:25:04;101881.38;;;11.09;87.20
78444;BME280;67739;52.986;8.894;2023-05-23T09:27:29;101901.09;;;11.08;86.68
78444;BME280;67739;52.986;8.894;2023-05-23T09:29:55;101893.97;;;11.07;86.65
78444;BME280;67739;52.986;8.894;2023-05-23T09:32:21;101901.25;;;11.03;85.18
78444;BME280;67739;52.986;8.894;2023-05-23T09:37:15;101899.56;;;10.99;85.97
78444;BME280;67739;52.986;8.894;2023-05-23T09:39:45;101900.41;;;11.01;85.57
78444;BME280;67739;52.986;8.894;2023-05-23T09:42:11;101887.78;;;11.05;85.38
78444;BME280;67739;52.986;8.894;2023-05-23T09:44:40;101900.22;;;11.07;85.17
78444;BME280;67739;52.986;8.894;2023-05-23T09:47:05;101900.13;;;11.10;84.45
78444;BME280;67739;52.986;8.894;2023-05-23T09:49:31;101913.44;;;11.13;84.83
78444;BME280;67739;52.986;8.894;2023-05-23T09:51:57;101915.38;;;11.10;83.90
78444;BME280;67739;52.986;8.894;2023-05-23T09:54:23;101914.53;;;11.08;82.23
78444;BME280;67739;52.986;8.894;2023-05-23T09:56:51;101909.13;;;11.09;83.40
78444;BME280;67739;52.986;8.894;2023-05-23T09:59:19;101908.81;;;11.18;82.28
78444;BME280;67739;52.986;8.894;2023-05-23T10:01:50;101916.59;;;11.26;82.42
78444;BME280;67739;52.986;8.894;2023-05-23T10:04:21;101913.72;;;11.32;80.31
78444;BME280;67739;52.986;8.894;2023-05-23T10:06:50;101920.56;;;11.41;80.56
78444;BME280;67739;52.986;8.894;2023-05-23T10:09:19;101945.41;;;11.49;80.14
78444;BME280;67739;52.986;8.894;2023-05-23T10:14:26;101944.28;;;11.54;76.63
78444;BME280;67739;52.986;8.894;2023-05-23T10:17:17;101947.72;;;11.59;76.27
78444;BME280;67739;52.986;8.894;2023-05-23T10:19:52;101929.94;;;11.55;74.77
78444;BME280;67739;52.986;8.894;2023-05-23T10:22:22;101931.50;;;11.62;75.96
78444;BME280;67739;52.986;8.894;2023-05-23T10:24:48;101936.44;;;11.75;76.89
78444;BME280;67739;52.986;8.894;2023-05-23T10:27:14;101933.03;;;11.96;76.06
78444;BME280;67739;52.986;8.894;2023-05-23T10:29:40;101934.22;;;12.12;75.00
78444;BME280;67739;52.986;8.894;2023-05-23T10:32:06;101937.28;;;12.26;72.68
78444;BME280;67739;52.986;8.894;2023-05-23T10:34:42;101943.91;;;12.41;73.53
78444;BME280;67739;52.986;8.894;2023-05-23T10:37:20;101937.84;;;12.59;71.69
78444;BME280;67739;52.986;8.894;2023-05-23T10:40:02;101944.16;;;12.58;70.92
78444;BME280;67739;52.986;8.894;2023-05-23T10:42:52;101945.50;;;12.70;71.36
78444;BME280;67739;52.986;8.894;2023-05-23T10:45:22;101973.06;;;12.77;70.71
78444;BME280;67739;52.986;8.894;2023-05-23T10:47:50;101956.81;;;12.80;71.31
78444;BME280;67739;52.986;8.894;2023-05-23T10:50:36;101969.38;;;12.79;70.16
78444;BME280;67739;52.986;8.894;2023-05-23T10:53:04;101958.34;;;12.85;71.08
78444;BME280;67739;52.986;8.894;2023-05-23T10:55:34;101961.53;;;12.96;70.11
78444;BME280;67739;52.986;8.894;2023-05-23T11:00:36;101959.94;;;12.91;67.24
78444;BME280;67739;52.986;8.894;2023-05-23T11:03:04;101977.00;;;12.91;67.48
78444;BME280;67739;52.986;8.894;2023-05-23T11:05:33;101970.50;;;12.97;65.21
78444;BME280;67739;52.986;8.894;2023-05-23T11:08:06;101968.78;;;12.94;66.02
78444;BME280;67739;52.986;8.894;2023-05-23T11:10:59;101984.25;;;12.89;65.57
78444;BME280;67739;52.986;8.894;2023-05-23T11:13:55;101974.94;;;12.74;66.15
78444;BME280;67739;52.986;8.894;2023-05-23T11:16:41;101989.34;;;12.73;67.42
78444;BME280;67739;52.986;8.894;2023-05-23T11:21:56;101990.28;;;12.96;65.99
78444;BME280;67739;52.986;8.894;2023-05-23T11:24:22;101988.63;;;13.15;66.39
78444;BME280;67739;52.986;8.894;2023-05-23T11:29:18;101989.59;;;13.36;65.36
78444;BME280;67739;52.986;8.894;2023-05-23T11:31:44;102002.19;;;13.35;64.04
78444;BME280;67739;52.986;8.894;2023-05-23T11:34:10;101994.13;;;13.35;64.29
78444;BME280;67739;52.986;8.894;2023-05-23T11:36:36;101992.25;;;13.37;65.88
78444;BME280;67739;52.986;8.894;2023-05-23T11:39:02;101999.00;;;13.48;65.81
78444;BME280;67739;52.986;8.894;2023-05-23T11:41:29;102000.59;;;13.53;66.19
78444;BME280;67739;52.986;8.894;2023-05-23T11:43:54;102004.00;;;13.57;64.84
78444;BME280;67739;52.986;8.894;2023-05-23T11:46:20;102007.41;;;13.62;64.98
78444;BME280;67739;52.986;8.894;2023-05-23T11:48:46;102001.50;;;13.74;66.52
78444;BME280;67739;52.986;8.894;2023-05-23T11:51:12;102020.53;;;13.91;64.71
78444;BME280;67739;52.986;8.894;2023-05-23T11:53:38;102019.69;;;14.11;64.08
78444;BME280;67739;52.986;8.894;2023-05-23T11:56:03;102013.19;;;14.15;60.69
78444;BME280;67739;52.986;8.894;2023-05-23T11:58:33;102015.63;;;14.01;58.72
78444;BME280;67739;52.986;8.894;2023-05-23T12:03:28;102009.28;;;13.82;59.06
78444;BME280;67739;52.986;8.894;2023-05-23T12:05:54;102018.97;;;13.86;61.19
78444;BME280;67739;52.986;8.894;2023-05-23T12:08:20;102014.38;;;13.88;61.99
78444;BME280;67739;52.986;8.894;2023-05-23T12:10:56;102009.50;;;13.97;63.12
78444;BME280;67739;52.986;8.894;2023-05-23T12:13:28;102015.19;;;14.11;62.77
78444;BME280;67739;52.986;8.894;2023-05-23T12:16:02;102008.22;;;14.26;61.55
78444;BME280;67739;52.986;8.894;2023-05-23T12:18:30;102018.00;;;14.29;60.74
78444;BME280;67739;52.986;8.894;2023-05-23T12:21:03;102022.88;;;14.21;60.87
78444;BME280;67739;52.986;8.894;2023-05-23T12:23:30;102028.31;;;14.19;61.19
78444;BME280;67739;52.986;8.894;2023-05-23T12:25:56;102047.56;;;14.32;59.42
78444;BME280;67739;52.986;8.894;2023-05-23T12:28:41;102027.19;;;14.25;58.72
78444;BME280;67739;52.986;8.894;2023-05-23T12:31:36;102026.94;;;14.51;58.00
78444;BME280;67739;52.986;8.894;2023-05-23T12:34:02;102020.09;;;14.63;56.09
78444;BME280;67739;52.986;8.894;2023-05-23T12:36:28;102032.53;;;14.67;57.19
78444;BME280;67739;52.986;8.894;2023-05-23T12:39:01;102028.63;;;14.54;56.70
78444;BME280;67739;52.986;8.894;2023-05-23T12:41:27;102032.53;;;14.67;58.95
78444;BME280;67739;52.986;8.894;2023-05-23T12:43:54;102034.22;;;14.88;58.43
78444;BME280;67739;52.986;8.894;2023-05-23T12:46:21;102026.88;;;14.92;56.18
78444;BME280;67739;52.986;8.894;2023-05-23T12:48:47;102038.44;;;15.14;57.95
78444;BME280;67739;52.986;8.894;2023-05-23T12:51:15;102034.19;;;15.08;56.40
78444;BME280;67739;52.986;8.894;2023-05-23T12:53:41;102034.63;;;14.99;56.13
78444;BME280;67739;52.986;8.894;2023-05-23T12:56:07;102032.47;;;14.87;57.29
78444;BME280;67739;52.986;8.894;2023-05-23T12:58:32;102036.69;;;14.74;57.71
78444;BME280;67739;52.986;8.894;2023-05-23T13:00:59;102038.25;;;14.59;57.24
78444;BME280;67739;52.986;8.894;2023-05-23T13:03:25;102050.25;;;14.54;56.54
78444;BME280;67739;52.986;8.894;2023-05-23T13:05:50;102044.97;;;14.50;56.72
78444;BME280;67739;52.986;8.894;2023-05-23T13:08:18;102068.66;;;14.44;57.46
78444;BME280;67739;52.986;8.894;2023-05-23T13:10:44;102060.84;;;14.16;57.19
78444;BME280;67739;52.986;8.894;2023-05-23T13:13:09;102049.38;;;14.11;57.97